KMCO/MCO METAR and TAF weather

Enter ICAO airport designator
Station Type Date Time Source
KMCO METAR 2019/02/21 11:53 UTC NOAA

KMCO 211153Z 09003KT 5SM R35L/2000VP6000FT BR BCFG FEW000 FEW070 19/18 A3012 RMK AO2 SLP199 FG FEW000 VIS SE 2 T01890183 10206 20178 53011


Station Type Date Time Source
KMCO Decoded METAR 2019/02/21 11:53 UTC NOAA

ORLANDO INTERNATIONAL AIRPORT , FL, United States (KMCO) 28-25N 81-20W 29M
Feb 21, 2019 - 06:53 AM EST / 2019.02.21 1153 UTC
Wind: from the E (090 degrees) at 3 MPH (3 KT):0
Visibility: 5 mile(s):0
Sky conditions: mostly clear
Weather: mist; patches of fog
Temperature: 66.0 F (18.9 C)
Dew Point: 64.9 F (18.3 C)
Relative Humidity: 96%
Pressure (altimeter): 30.12 in. Hg (1019 hPa)
Pressure tendency: 0.03 inches (1.1 hPa) higher than three hours ago
ob: KMCO 211153Z 09003KT 5SM R35L/2000VP6000FT BR BCFG FEW000 FEW070 19/18 A3012 RMK AO2 SLP199 FG FEW000 VIS SE 2 T01890183 10206 20178 53011
cycle: 12

Station Type Date Time Source
KMCO TAF 2019/02/21 12:22 UTC NOAA

TAF KMCO 211120Z 2112/2218 15003KT P6SM MIFG FEW012
TEMPO 2112/2113 3SM MIFG BR SCT010
FM211400 15005KT P6SM SCT025
FM211800 17010KT P6SM SCT045
FM220000 14006KT P6SM BKN050
FM220300 VRB02KT P6SM SKC
TEMPO 2210/2213 3SM MIFG BR SCT010
FM221500 15007KT P6SM SCT030


Example: see airport list